sensor_id;sensor_type;location;lat;lon;timestamp;P1;durP1;ratioP1;P2;durP2;ratioP2
21198;SDS011;10757;51.038;3.712;2023-02-28T00:00:39;13.70;;;7.03;;
21198;SDS011;10757;51.038;3.712;2023-02-28T00:03:05;15.85;;;7.47;;
21198;SDS011;10757;51.038;3.712;2023-02-28T00:05:30;13.93;;;5.53;;
21198;SDS011;10757;51.038;3.712;2023-02-28T00:07:56;11.38;;;5.72;;
21198;SDS011;10757;51.038;3.712;2023-02-28T00:10:24;10.00;;;5.35;;
21198;SDS011;10757;51.038;3.712;2023-02-28T00:12:53;11.65;;;6.13;;
21198;SDS011;10757;51.038;3.712;2023-02-28T00:15:22;11.73;;;5.60;;
21198;SDS011;10757;51.038;3.712;2023-02-28T00:17:48;11.05;;;5.85;;
21198;SDS011;10757;51.038;3.712;2023-02-28T00:20:14;8.93;;;5.45;;
21198;SDS011;10757;51.038;3.712;2023-02-28T00:22:42;10.80;;;5.32;;
21198;SDS011;10757;51.038;3.712;2023-02-28T00:25:10;11.02;;;5.00;;
21198;SDS011;10757;51.038;3.712;2023-02-28T00:27:38;10.40;;;5.10;;
21198;SDS011;10757;51.038;3.712;2023-02-28T00:30:05;8.77;;;4.97;;
21198;SDS011;10757;51.038;3.712;2023-02-28T00:32:33;11.93;;;5.75;;
21198;SDS011;10757;51.038;3.712;2023-02-28T00:34:59;13.75;;;5.50;;
21198;SDS011;10757;51.038;3.712;2023-02-28T00:37:25;10.32;;;5.00;;
21198;SDS011;10757;51.038;3.712;2023-02-28T00:39:51;10.25;;;5.30;;
21198;SDS011;10757;51.038;3.712;2023-02-28T00:42:17;12.52;;;5.05;;
21198;SDS011;10757;51.038;3.712;2023-02-28T00:44:43;8.93;;;5.22;;
21198;SDS011;10757;51.038;3.712;2023-02-28T00:47:08;12.45;;;5.82;;
21198;SDS011;10757;51.038;3.712;2023-02-28T00:49:36;10.52;;;5.55;;
21198;SDS011;10757;51.038;3.712;2023-02-28T00:52:02;15.38;;;6.07;;
21198;SDS011;10757;51.038;3.712;2023-02-28T00:54:28;10.32;;;5.95;;
21198;SDS011;10757;51.038;3.712;2023-02-28T00:56:54;12.07;;;5.78;;
21198;SDS011;10757;51.038;3.712;2023-02-28T00:59:19;10.00;;;5.95;;
21198;SDS011;10757;51.038;3.712;2023-02-28T01:01:45;16.08;;;5.82;;
21198;SDS011;10757;51.038;3.712;2023-02-28T01:04:11;10.77;;;5.65;;
21198;SDS011;10757;51.038;3.712;2023-02-28T01:06:38;10.80;;;6.15;;
21198;SDS011;10757;51.038;3.712;2023-02-28T01:09:04;8.07;;;5.15;;
21198;SDS011;10757;51.038;3.712;2023-02-28T01:11:31;15.65;;;6.45;;
21198;SDS011;10757;51.038;3.712;2023-02-28T01:13:58;10.77;;;6.43;;
21198;SDS011;10757;51.038;3.712;2023-02-28T01:16:24;11.90;;;6.05;;
21198;SDS011;10757;51.038;3.712;2023-02-28T01:18:50;11.98;;;6.53;;
21198;SDS011;10757;51.038;3.712;2023-02-28T01:21:16;10.98;;;6.22;;
21198;SDS011;10757;51.038;3.712;2023-02-28T01:23:43;9.13;;;5.45;;
21198;SDS011;10757;51.038;3.712;2023-02-28T01:26:13;10.38;;;5.10;;
21198;SDS011;10757;51.038;3.712;2023-02-28T01:28:39;11.90;;;5.53;;
21198;SDS011;10757;51.038;3.712;2023-02-28T01:31:06;7.85;;;5.07;;
21198;SDS011;10757;51.038;3.712;2023-02-28T01:33:33;11.55;;;6.03;;
21198;SDS011;10757;51.038;3.712;2023-02-28T01:36:00;8.23;;;5.18;;
21198;SDS011;10757;51.038;3.712;2023-02-28T01:38:27;9.00;;;5.43;;
21198;SDS011;10757;51.038;3.712;2023-02-28T01:40:53;9.18;;;5.30;;
21198;SDS011;10757;51.038;3.712;2023-02-28T01:43:21;12.70;;;5.95;;
21198;SDS011;10757;51.038;3.712;2023-02-28T01:45:49;10.68;;;6.00;;
21198;SDS011;10757;51.038;3.712;2023-02-28T01:48:15;12.15;;;5.88;;
21198;SDS011;10757;51.038;3.712;2023-02-28T01:50:42;11.63;;;6.25;;
21198;SDS011;10757;51.038;3.712;2023-02-28T01:53:18;9.73;;;5.72;;
21198;SDS011;10757;51.038;3.712;2023-02-28T01:55:48;16.48;;;6.65;;
21198;SDS011;10757;51.038;3.712;2023-02-28T01:58:16;11.82;;;5.85;;
21198;SDS011;10757;51.038;3.712;2023-02-28T02:00:42;14.13;;;6.35;;
21198;SDS011;10757;51.038;3.712;2023-02-28T02:03:10;10.82;;;5.97;;
21198;SDS011;10757;51.038;3.712;2023-02-28T02:05:38;11.68;;;5.85;;
21198;SDS011;10757;51.038;3.712;2023-02-28T02:08:09;13.52;;;5.80;;
21198;SDS011;10757;51.038;3.712;2023-02-28T02:25:17;14.85;;;6.82;;
21198;SDS011;10757;51.038;3.712;2023-02-28T02:30:22;10.07;;;6.70;;
21198;SDS011;10757;51.038;3.712;2023-02-28T02:36:45;11.18;;;6.70;;
21198;SDS011;10757;51.038;3.712;2023-02-28T02:41:49;10.70;;;6.60;;
21198;SDS011;10757;51.038;3.712;2023-02-28T02:44:20;17.02;;;6.40;;
21198;SDS011;10757;51.038;3.712;2023-02-28T02:46:50;12.32;;;6.28;;
21198;SDS011;10757;51.038;3.712;2023-02-28T02:49:30;12.05;;;6.32;;
21198;SDS011;10757;51.038;3.712;2023-02-28T02:52:00;10.73;;;6.90;;
21198;SDS011;10757;51.038;3.712;2023-02-28T02:54:40;12.25;;;6.63;;
21198;SDS011;10757;51.038;3.712;2023-02-28T02:57:11;13.10;;;5.82;;
21198;SDS011;10757;51.038;3.712;2023-02-28T02:59:43;12.38;;;7.13;;
21198;SDS011;10757;51.038;3.712;2023-02-28T03:02:11;9.43;;;5.97;;
21198;SDS011;10757;51.038;3.712;2023-02-28T03:04:40;14.70;;;6.60;;
21198;SDS011;10757;51.038;3.712;2023-02-28T03:07:10;12.68;;;6.60;;
21198;SDS011;10757;51.038;3.712;2023-02-28T03:09:36;13.30;;;6.78;;
21198;SDS011;10757;51.038;3.712;2023-02-28T03:12:01;11.25;;;6.35;;
21198;SDS011;10757;51.038;3.712;2023-02-28T03:19:44;10.25;;;5.93;;
21198;SDS011;10757;51.038;3.712;2023-02-28T03:27:55;15.00;;;6.53;;
21198;SDS011;10757;51.038;3.712;2023-02-28T03:33:33;11.02;;;6.70;;
21198;SDS011;10757;51.038;3.712;2023-02-28T03:36:08;12.57;;;6.75;;
21198;SDS011;10757;51.038;3.712;2023-02-28T03:38:52;12.15;;;6.60;;
21198;SDS011;10757;51.038;3.712;2023-02-28T03:44:33;15.52;;;7.20;;
21198;SDS011;10757;51.038;3.712;2023-02-28T03:47:07;12.45;;;6.60;;
21198;SDS011;10757;51.038;3.712;2023-02-28T03:52:31;16.30;;;7.00;;
21198;SDS011;10757;51.038;3.712;2023-02-28T03:55:01;15.93;;;6.78;;
21198;SDS011;10757;51.038;3.712;2023-02-28T04:00:32;11.63;;;6.55;;
21198;SDS011;10757;51.038;3.712;2023-02-28T04:03:01;10.45;;;5.88;;
21198;SDS011;10757;51.038;3.712;2023-02-28T04:05:27;11.65;;;7.10;;
21198;SDS011;10757;51.038;3.712;2023-02-28T04:07:54;12.63;;;6.53;;
21198;SDS011;10757;51.038;3.712;2023-02-28T04:10:31;11.65;;;6.38;;
21198;SDS011;10757;51.038;3.712;2023-02-28T04:12:57;10.50;;;5.88;;
21198;SDS011;10757;51.038;3.712;2023-02-28T04:15:22;15.43;;;7.50;;
21198;SDS011;10757;51.038;3.712;2023-02-28T04:17:49;11.95;;;6.07;;
21198;SDS011;10757;51.038;3.712;2023-02-28T04:20:15;13.15;;;6.72;;
21198;SDS011;10757;51.038;3.712;2023-02-28T04:22:41;10.70;;;6.47;;
21198;SDS011;10757;51.038;3.712;2023-02-28T04:25:07;11.75;;;6.47;;
21198;SDS011;10757;51.038;3.712;2023-02-28T04:27:33;15.15;;;6.22;;
21198;SDS011;10757;51.038;3.712;2023-02-28T04:29:59;10.98;;;6.45;;
21198;SDS011;10757;51.038;3.712;2023-02-28T04:32:25;12.13;;;6.57;;
21198;SDS011;10757;51.038;3.712;2023-02-28T04:34:51;12.45;;;6.60;;
21198;SDS011;10757;51.038;3.712;2023-02-28T04:37:16;11.05;;;6.10;;
21198;SDS011;10757;51.038;3.712;2023-02-28T04:39:42;11.75;;;7.07;;
21198;SDS011;10757;51.038;3.712;2023-02-28T04:42:09;12.48;;;6.65;;
21198;SDS011;10757;51.038;3.712;2023-02-28T04:44:35;12.77;;;6.28;;
21198;SDS011;10757;51.038;3.712;2023-02-28T04:47:01;11.65;;;6.10;;
21198;SDS011;10757;51.038;3.712;2023-02-28T04:49:27;10.07;;;5.80;;
21198;SDS011;10757;51.038;3.712;2023-02-28T04:51:52;13.23;;;6.60;;
21198;SDS011;10757;51.038;3.712;2023-02-28T04:54:18;16.83;;;6.28;;
21198;SDS011;10757;51.038;3.712;2023-02-28T04:56:44;11.27;;;6.70;;
21198;SDS011;10757;51.038;3.712;2023-02-28T04:59:10;13.35;;;6.40;;
21198;SDS011;10757;51.038;3.712;2023-02-28T05:01:35;10.73;;;6.30;;
21198;SDS011;10757;51.038;3.712;2023-02-28T05:04:02;12.20;;;5.93;;
21198;SDS011;10757;51.038;3.712;2023-02-28T05:06:30;10.60;;;6.30;;
21198;SDS011;10757;51.038;3.712;2023-02-28T05:08:57;9.45;;;5.78;;
21198;SDS011;10757;51.038;3.712;2023-02-28T05:11:25;13.13;;;6.28;;
21198;SDS011;10757;51.038;3.712;2023-02-28T05:13:54;15.00;;;6.70;;
21198;SDS011;10757;51.038;3.712;2023-02-28T05:16:20;10.90;;;5.93;;
21198;SDS011;10757;51.038;3.712;2023-02-28T05:18:47;10.80;;;5.97;;
21198;SDS011;10757;51.038;3.712;2023-02-28T05:21:26;15.02;;;7.38;;
21198;SDS011;10757;51.038;3.712;2023-02-28T05:23:55;10.35;;;5.85;;
21198;SDS011;10757;51.038;3.712;2023-02-28T05:26:23;29.63;;;17.13;;
21198;SDS011;10757;51.038;3.712;2023-02-28T05:28:49;33.10;;;18.27;;
21198;SDS011;10757;51.038;3.712;2023-02-28T05:31:15;10.88;;;6.13;;
21198;SDS011;10757;51.038;3.712;2023-02-28T05:33:41;12.18;;;6.65;;
21198;SDS011;10757;51.038;3.712;2023-02-28T05:36:07;12.82;;;6.32;;
21198;SDS011;10757;51.038;3.712;2023-02-28T05:38:33;14.75;;;6.20;;
21198;SDS011;10757;51.038;3.712;2023-02-28T05:40:59;10.88;;;6.18;;
21198;SDS011;10757;51.038;3.712;2023-02-28T05:43:25;13.18;;;6.32;;
21198;SDS011;10757;51.038;3.712;2023-02-28T05:45:50;9.90;;;6.13;;
21198;SDS011;10757;51.038;3.712;2023-02-28T05:48:16;16.55;;;7.03;;
21198;SDS011;10757;51.038;3.712;2023-02-28T05:50:43;11.07;;;6.60;;
21198;SDS011;10757;51.038;3.712;2023-02-28T05:53:11;15.73;;;7.32;;
21198;SDS011;10757;51.038;3.712;2023-02-28T05:55:36;13.73;;;8.10;;
21198;SDS011;10757;51.038;3.712;2023-02-28T05:58:03;12.40;;;6.05;;
21198;SDS011;10757;51.038;3.712;2023-02-28T06:00:29;13.85;;;6.78;;
21198;SDS011;10757;51.038;3.712;2023-02-28T06:02:54;11.02;;;6.90;;
21198;SDS011;10757;51.038;3.712;2023-02-28T06:05:23;11.27;;;6.68;;
21198;SDS011;10757;51.038;3.712;2023-02-28T06:07:49;12.88;;;6.95;;
21198;SDS011;10757;51.038;3.712;2023-02-28T06:10:15;20.13;;;6.50;;
21198;SDS011;10757;51.038;3.712;2023-02-28T06:12:41;11.55;;;6.80;;
21198;SDS011;10757;51.038;3.712;2023-02-28T06:15:07;11.50;;;6.65;;
21198;SDS011;10757;51.038;3.712;2023-02-28T06:17:36;13.63;;;5.95;;
21198;SDS011;10757;51.038;3.712;2023-02-28T06:20:03;13.45;;;6.25;;
21198;SDS011;10757;51.038;3.712;2023-02-28T06:22:29;13.65;;;6.57;;
21198;SDS011;10757;51.038;3.712;2023-02-28T06:24:56;12.98;;;7.00;;
21198;SDS011;10757;51.038;3.712;2023-02-28T06:27:22;19.45;;;9.10;;
21198;SDS011;10757;51.038;3.712;2023-02-28T06:29:48;12.80;;;7.28;;
21198;SDS011;10757;51.038;3.712;2023-02-28T06:32:18;12.55;;;6.93;;
21198;SDS011;10757;51.038;3.712;2023-02-28T06:34:44;14.70;;;6.93;;
21198;SDS011;10757;51.038;3.712;2023-02-28T06:37:10;15.32;;;7.47;;
21198;SDS011;10757;51.038;3.712;2023-02-28T06:39:36;13.30;;;6.68;;
21198;SDS011;10757;51.038;3.712;2023-02-28T06:42:02;14.32;;;6.50;;
21198;SDS011;10757;51.038;3.712;2023-02-28T06:44:28;12.90;;;6.25;;
21198;SDS011;10757;51.038;3.712;2023-02-28T06:47:00;16.73;;;6.80;;
21198;SDS011;10757;51.038;3.712;2023-02-28T06:49:28;28.80;;;12.63;;
21198;SDS011;10757;51.038;3.712;2023-02-28T06:51:55;13.23;;;7.88;;
21198;SDS011;10757;51.038;3.712;2023-02-28T06:54:21;12.70;;;6.43;;
21198;SDS011;10757;51.038;3.712;2023-02-28T06:56:47;15.23;;;7.47;;
21198;SDS011;10757;51.038;3.712;2023-02-28T06:59:13;15.70;;;6.88;;
21198;SDS011;10757;51.038;3.712;2023-02-28T07:01:39;16.98;;;7.18;;
21198;SDS011;10757;51.038;3.712;2023-02-28T07:04:05;12.18;;;6.13;;
21198;SDS011;10757;51.038;3.712;2023-02-28T07:06:31;19.58;;;6.55;;
21198;SDS011;10757;51.038;3.712;2023-02-28T07:08:57;15.48;;;6.60;;
21198;SDS011;10757;51.038;3.712;2023-02-28T07:11:24;14.43;;;6.60;;
21198;SDS011;10757;51.038;3.712;2023-02-28T07:13:55;15.70;;;6.68;;
21198;SDS011;10757;51.038;3.712;2023-02-28T07:16:21;12.88;;;5.95;;
21198;SDS011;10757;51.038;3.712;2023-02-28T07:18:48;16.73;;;5.95;;
21198;SDS011;10757;51.038;3.712;2023-02-28T07:21:17;31.85;;;6.75;;
21198;SDS011;10757;51.038;3.712;2023-02-28T07:23:42;16.48;;;5.80;;
21198;SDS011;10757;51.038;3.712;2023-02-28T07:26:13;18.30;;;7.05;;
21198;SDS011;10757;51.038;3.712;2023-02-28T07:28:41;14.63;;;6.22;;
21198;SDS011;10757;51.038;3.712;2023-02-28T07:31:07;14.55;;;5.40;;
21198;SDS011;10757;51.038;3.712;2023-02-28T07:33:35;15.02;;;5.70;;
21198;SDS011;10757;51.038;3.712;2023-02-28T07:36:02;14.50;;;6.35;;
21198;SDS011;10757;51.038;3.712;2023-02-28T07:38:29;19.48;;;5.43;;
21198;SDS011;10757;51.038;3.712;2023-02-28T07:40:55;13.93;;;6.82;;
21198;SDS011;10757;51.038;3.712;2023-02-28T07:43:20;13.27;;;6.63;;
21198;SDS011;10757;51.038;3.712;2023-02-28T07:45:46;11.98;;;5.53;;
21198;SDS011;10757;51.038;3.712;2023-02-28T07:48:12;9.45;;;4.85;;
21198;SDS011;10757;51.038;3.712;2023-02-28T07:50:37;17.67;;;5.72;;
21198;SDS011;10757;51.038;3.712;2023-02-28T07:53:03;12.32;;;5.28;;
21198;SDS011;10757;51.038;3.712;2023-02-28T07:55:30;8.98;;;5.05;;
21198;SDS011;10757;51.038;3.712;2023-02-28T07:57:59;14.07;;;4.63;;
21198;SDS011;10757;51.038;3.712;2023-02-28T08:00:25;8.30;;;3.95;;
21198;SDS011;10757;51.038;3.712;2023-02-28T08:02:51;9.65;;;4.55;;
21198;SDS011;10757;51.038;3.712;2023-02-28T08:05:18;10.18;;;4.90;;
21198;SDS011;10757;51.038;3.712;2023-02-28T08:07:45;8.18;;;4.07;;
21198;SDS011;10757;51.038;3.712;2023-02-28T08:10:12;15.18;;;4.90;;
21198;SDS011;10757;51.038;3.712;2023-02-28T08:12:38;10.23;;;4.45;;
21198;SDS011;10757;51.038;3.712;2023-02-28T08:15:04;13.18;;;4.53;;
21198;SDS011;10757;51.038;3.712;2023-02-28T08:17:31;12.40;;;4.00;;
21198;SDS011;10757;51.038;3.712;2023-02-28T08:19:57;8.93;;;4.45;;
21198;SDS011;10757;51.038;3.712;2023-02-28T08:22:22;5.93;;;3.53;;
21198;SDS011;10757;51.038;3.712;2023-02-28T08:24:48;6.97;;;3.75;;
21198;SDS011;10757;51.038;3.712;2023-02-28T08:27:14;11.48;;;4.72;;
21198;SDS011;10757;51.038;3.712;2023-02-28T08:29:40;11.65;;;4.28;;
21198;SDS011;10757;51.038;3.712;2023-02-28T08:32:06;8.43;;;4.32;;
21198;SDS011;10757;51.038;3.712;2023-02-28T08:34:32;9.38;;;4.07;;
21198;SDS011;10757;51.038;3.712;2023-02-28T08:37:00;17.30;;;4.38;;
21198;SDS011;10757;51.038;3.712;2023-02-28T08:39:26;13.95;;;4.90;;
21198;SDS011;10757;51.038;3.712;2023-02-28T08:41:51;10.48;;;4.22;;
21198;SDS011;10757;51.038;3.712;2023-02-28T08:44:18;10.25;;;4.28;;
21198;SDS011;10757;51.038;3.712;2023-02-28T08:46:44;14.00;;;4.68;;
21198;SDS011;10757;51.038;3.712;2023-02-28T08:49:10;16.83;;;5.45;;
21198;SDS011;10757;51.038;3.712;2023-02-28T08:51:36;10.80;;;5.15;;
21198;SDS011;10757;51.038;3.712;2023-02-28T08:54:03;18.35;;;4.95;;
21198;SDS011;10757;51.038;3.712;2023-02-28T08:56:29;11.75;;;5.55;;
21198;SDS011;10757;51.038;3.712;2023-02-28T08:58:56;11.77;;;5.30;;
21198;SDS011;10757;51.038;3.712;2023-02-28T09:01:23;11.52;;;5.03;;
21198;SDS011;10757;51.038;3.712;2023-02-28T09:03:55;20.58;;;4.80;;
21198;SDS011;10757;51.038;3.712;2023-02-28T09:06:22;9.32;;;4.97;;
21198;SDS011;10757;51.038;3.712;2023-02-28T09:08:50;15.07;;;4.80;;
21198;SDS011;10757;51.038;3.712;2023-02-28T09:11:16;15.68;;;4.53;;
21198;SDS011;10757;51.038;3.712;2023-02-28T09:13:44;16.40;;;4.93;;
21198;SDS011;10757;51.038;3.712;2023-02-28T09:16:11;14.52;;;5.10;;
21198;SDS011;10757;51.038;3.712;2023-02-28T09:18:39;12.07;;;4.50;;
21198;SDS011;10757;51.038;3.712;2023-02-28T09:21:12;11.13;;;4.45;;
21198;SDS011;10757;51.038;3.712;2023-02-28T09:23:40;11.80;;;4.68;;
21198;SDS011;10757;51.038;3.712;2023-02-28T09:26:07;11.57;;;4.28;;
21198;SDS011;10757;51.038;3.712;2023-02-28T09:28:38;9.85;;;5.07;;
21198;SDS011;10757;51.038;3.712;2023-02-28T09:31:03;10.57;;;4.82;;
21198;SDS011;10757;51.038;3.712;2023-02-28T09:33:29;12.50;;;5.07;;
21198;SDS011;10757;51.038;3.712;2023-02-28T09:35:59;11.40;;;5.38;;
21198;SDS011;10757;51.038;3.712;2023-02-28T09:38:27;13.57;;;5.13;;
21198;SDS011;10757;51.038;3.712;2023-02-28T09:40:54;13.70;;;4.35;;
21198;SDS011;10757;51.038;3.712;2023-02-28T09:43:27;9.48;;;3.95;;
21198;SDS011;10757;51.038;3.712;2023-02-28T09:46:43;8.75;;;3.80;;
21198;SDS011;10757;51.038;3.712;2023-02-28T09:48:57;10.73;;;4.00;;
21198;SDS011;10757;51.038;3.712;2023-02-28T09:53:58;11.63;;;4.63;;
21198;SDS011;10757;51.038;3.712;2023-02-28T09:56:25;10.88;;;4.22;;
21198;SDS011;10757;51.038;3.712;2023-02-28T09:58:59;12.85;;;3.78;;
21198;SDS011;10757;51.038;3.712;2023-02-28T10:10:21;8.82;;;3.92;;
21198;SDS011;10757;51.038;3.712;2023-02-28T10:12:52;14.65;;;5.18;;
21198;SDS011;10757;51.038;3.712;2023-02-28T10:15:21;10.27;;;3.83;;
21198;SDS011;10757;51.038;3.712;2023-02-28T10:17:52;7.35;;;2.80;;
21198;SDS011;10757;51.038;3.712;2023-02-28T10:20:22;10.05;;;3.40;;
21198;SDS011;10757;51.038;3.712;2023-02-28T10:25:36;11.57;;;3.67;;
21198;SDS011;10757;51.038;3.712;2023-02-28T10:28:15;9.50;;;3.47;;
21198;SDS011;10757;51.038;3.712;2023-02-28T10:30:47;7.80;;;3.42;;
21198;SDS011;10757;51.038;3.712;2023-02-28T10:33:28;9.07;;;3.40;;
21198;SDS011;10757;51.038;3.712;2023-02-28T10:35:57;7.95;;;3.05;;
21198;SDS011;10757;51.038;3.712;2023-02-28T10:38:24;9.57;;;3.50;;
21198;SDS011;10757;51.038;3.712;2023-02-28T10:41:03;6.30;;;2.67;;
21198;SDS011;10757;51.038;3.712;2023-02-28T10:43:38;11.50;;;2.83;;
21198;SDS011;10757;51.038;3.712;2023-02-28T10:48:39;11.38;;;2.80;;
21198;SDS011;10757;51.038;3.712;2023-02-28T10:51:08;11.35;;;5.22;;
21198;SDS011;10757;51.038;3.712;2023-02-28T10:56:17;7.50;;;2.38;;
21198;SDS011;10757;51.038;3.712;2023-02-28T11:01:23;8.30;;;3.22;;
21198;SDS011;10757;51.038;3.712;2023-02-28T11:07:33;4.30;;;2.00;;
21198;SDS011;10757;51.038;3.712;2023-02-28T11:09:39;5.80;;;2.53;;
21198;SDS011;10757;51.038;3.712;2023-02-28T11:12:18;9.20;;;3.70;;
21198;SDS011;10757;51.038;3.712;2023-02-28T11:14:59;4.40;;;1.77;;
21198;SDS011;10757;51.038;3.712;2023-02-28T11:17:28;6.97;;;2.60;;
21198;SDS011;10757;51.038;3.712;2023-02-28T11:20:01;7.50;;;2.47;;
21198;SDS011;10757;51.038;3.712;2023-02-28T11:22:32;5.25;;;2.28;;
21198;SDS011;10757;51.038;3.712;2023-02-28T11:25:07;9.95;;;2.72;;
21198;SDS011;10757;51.038;3.712;2023-02-28T11:30:31;6.60;;;3.28;;
21198;SDS011;10757;51.038;3.712;2023-02-28T11:36:11;10.52;;;3.00;;
21198;SDS011;10757;51.038;3.712;2023-02-28T11:38:43;5.57;;;2.30;;
21198;SDS011;10757;51.038;3.712;2023-02-28T11:41:22;4.82;;;2.33;;
21198;SDS011;10757;51.038;3.712;2023-02-28T11:47:00;7.45;;;2.65;;
21198;SDS011;10757;51.038;3.712;2023-02-28T11:49:49;5.70;;;2.20;;
21198;SDS011;10757;51.038;3.712;2023-02-28T12:01:28;5.78;;;2.38;;
21198;SDS011;10757;51.038;3.712;2023-02-28T12:07:38;7.05;;;2.17;;
21198;SDS011;10757;51.038;3.712;2023-02-28T12:13:38;9.60;;;2.70;;
21198;SDS011;10757;51.038;3.712;2023-02-28T12:27:37;4.55;;;2.15;;
21198;SDS011;10757;51.038;3.712;2023-02-28T12:30:26;6.18;;;2.00;;
21198;SDS011;10757;51.038;3.712;2023-02-28T12:33:12;9.90;;;3.63;;
21198;SDS011;10757;51.038;3.712;2023-02-28T12:43:37;7.43;;;2.20;;
21198;SDS011;10757;51.038;3.712;2023-02-28T12:46:09;5.65;;;1.80;;
21198;SDS011;10757;51.038;3.712;2023-02-28T12:48:48;8.38;;;1.90;;
21198;SDS011;10757;51.038;3.712;2023-02-28T12:51:20;10.00;;;2.10;;
21198;SDS011;10757;51.038;3.712;2023-02-28T12:54:02;10.38;;;2.50;;
21198;SDS011;10757;51.038;3.712;2023-02-28T12:56:48;3.40;;;1.77;;
21198;SDS011;10757;51.038;3.712;2023-02-28T13:10:56;5.05;;;1.70;;
21198;SDS011;10757;51.038;3.712;2023-02-28T13:13:23;4.22;;;1.75;;
21198;SDS011;10757;51.038;3.712;2023-02-28T13:16:09;6.75;;;1.63;;
21198;SDS011;10757;51.038;3.712;2023-02-28T13:18:38;6.85;;;2.40;;
21198;SDS011;10757;51.038;3.712;2023-02-28T13:21:26;11.10;;;2.47;;
21198;SDS011;10757;51.038;3.712;2023-02-28T13:29:02;4.25;;;1.92;;
21198;SDS011;10757;51.038;3.712;2023-02-28T13:31:32;5.15;;;2.10;;
21198;SDS011;10757;51.038;3.712;2023-02-28T13:34:11;11.85;;;2.30;;
21198;SDS011;10757;51.038;3.712;2023-02-28T13:36:39;4.35;;;1.75;;
21198;SDS011;10757;51.038;3.712;2023-02-28T13:39:49;5.60;;;2.40;;
21198;SDS011;10757;51.038;3.712;2023-02-28T13:47:30;9.93;;;2.00;;
21198;SDS011;10757;51.038;3.712;2023-02-28T14:07:07;5.53;;;1.85;;
21198;SDS011;10757;51.038;3.712;2023-02-28T14:09:45;3.97;;;2.10;;
21198;SDS011;10757;51.038;3.712;2023-02-28T14:38:27;5.07;;;2.10;;
21198;SDS011;10757;51.038;3.712;2023-02-28T14:46:59;6.07;;;2.47;;
21198;SDS011;10757;51.038;3.712;2023-02-28T14:49:36;6.70;;;2.45;;
21198;SDS011;10757;51.038;3.712;2023-02-28T14:52:22;5.20;;;2.55;;
21198;SDS011;10757;51.038;3.712;2023-02-28T14:57:42;9.40;;;2.38;;
21198;SDS011;10757;51.038;3.712;2023-02-28T15:00:36;9.15;;;3.20;;
21198;SDS011;10757;51.038;3.712;2023-02-28T15:03:20;5.55;;;2.72;;
21198;SDS011;10757;51.038;3.712;2023-02-28T15:06:00;5.97;;;2.67;;
21198;SDS011;10757;51.038;3.712;2023-02-28T15:08:31;6.97;;;2.65;;
21198;SDS011;10757;51.038;3.712;2023-02-28T15:11:08;4.93;;;2.63;;
21198;SDS011;10757;51.038;3.712;2023-02-28T15:13:54;7.22;;;2.80;;
21198;SDS011;10757;51.038;3.712;2023-02-28T15:16:25;8.15;;;3.10;;
21198;SDS011;10757;51.038;3.712;2023-02-28T15:19:11;8.13;;;3.00;;
21198;SDS011;10757;51.038;3.712;2023-02-28T15:24:43;6.15;;;2.95;;
21198;SDS011;10757;51.038;3.712;2023-02-28T15:27:28;4.82;;;2.40;;
21198;SDS011;10757;51.038;3.712;2023-02-28T15:30:05;6.45;;;2.95;;
21198;SDS011;10757;51.038;3.712;2023-02-28T15:32:38;7.40;;;2.45;;
21198;SDS011;10757;51.038;3.712;2023-02-28T15:35:20;12.07;;;3.20;;
21198;SDS011;10757;51.038;3.712;2023-02-28T15:37:54;6.10;;;3.20;;
21198;SDS011;10757;51.038;3.712;2023-02-28T15:40:36;7.35;;;3.28;;
21198;SDS011;10757;51.038;3.712;2023-02-28T15:43:17;8.60;;;2.90;;
21198;SDS011;10757;51.038;3.712;2023-02-28T15:45:59;7.32;;;3.72;;
21198;SDS011;10757;51.038;3.712;2023-02-28T15:48:35;9.95;;;3.50;;
21198;SDS011;10757;51.038;3.712;2023-02-28T15:53:58;6.80;;;3.00;;
21198;SDS011;10757;51.038;3.712;2023-02-28T15:56:30;8.30;;;3.50;;
21198;SDS011;10757;51.038;3.712;2023-02-28T15:59:06;8.32;;;3.58;;
21198;SDS011;10757;51.038;3.712;2023-02-28T16:01:38;6.18;;;3.10;;
21198;SDS011;10757;51.038;3.712;2023-02-28T16:04:06;8.48;;;2.83;;
21198;SDS011;10757;51.038;3.712;2023-02-28T16:09:24;6.50;;;3.38;;
21198;SDS011;10757;51.038;3.712;2023-02-28T16:11:52;7.45;;;2.58;;
21198;SDS011;10757;51.038;3.712;2023-02-28T16:14:21;8.73;;;3.22;;
21198;SDS011;10757;51.038;3.712;2023-02-28T16:16:49;15.82;;;3.83;;
21198;SDS011;10757;51.038;3.712;2023-02-28T16:19:20;6.55;;;2.95;;
21198;SDS011;10757;51.038;3.712;2023-02-28T16:21:46;5.93;;;3.00;;
21198;SDS011;10757;51.038;3.712;2023-02-28T16:24:12;8.18;;;3.10;;
21198;SDS011;10757;51.038;3.712;2023-02-28T16:26:39;8.05;;;3.13;;
21198;SDS011;10757;51.038;3.712;2023-02-28T16:29:07;12.27;;;4.28;;
21198;SDS011;10757;51.038;3.712;2023-02-28T16:31:35;8.80;;;3.38;;
21198;SDS011;10757;51.038;3.712;2023-02-28T16:34:04;17.38;;;4.10;;
21198;SDS011;10757;51.038;3.712;2023-02-28T16:36:30;6.57;;;3.42;;
21198;SDS011;10757;51.038;3.712;2023-02-28T16:38:55;11.07;;;3.28;;
21198;SDS011;10757;51.038;3.712;2023-02-28T16:41:32;5.82;;;3.60;;
21198;SDS011;10757;51.038;3.712;2023-02-28T16:43:59;6.57;;;3.33;;
21198;SDS011;10757;51.038;3.712;2023-02-28T16:46:33;9.70;;;3.92;;
21198;SDS011;10757;51.038;3.712;2023-02-28T16:49:03;9.13;;;3.20;;
21198;SDS011;10757;51.038;3.712;2023-02-28T16:51:29;5.90;;;3.08;;
21198;SDS011;10757;51.038;3.712;2023-02-28T16:53:58;7.20;;;3.20;;
21198;SDS011;10757;51.038;3.712;2023-02-28T16:56:24;11.40;;;4.28;;
21198;SDS011;10757;51.038;3.712;2023-02-28T16:58:50;9.00;;;4.20;;
21198;SDS011;10757;51.038;3.712;2023-02-28T17:01:17;6.45;;;3.30;;
21198;SDS011;10757;51.038;3.712;2023-02-28T17:03:47;14.13;;;4.05;;
21198;SDS011;10757;51.038;3.712;2023-02-28T17:06:25;6.65;;;3.33;;
21198;SDS011;10757;51.038;3.712;2023-02-28T17:08:56;13.88;;;4.90;;
21198;SDS011;10757;51.038;3.712;2023-02-28T17:11:25;12.93;;;5.13;;
21198;SDS011;10757;51.038;3.712;2023-02-28T17:13:52;8.30;;;4.18;;
21198;SDS011;10757;51.038;3.712;2023-02-28T17:16:26;12.07;;;5.32;;
21198;SDS011;10757;51.038;3.712;2023-02-28T17:18:59;9.35;;;4.90;;
21198;SDS011;10757;51.038;3.712;2023-02-28T17:21:27;10.10;;;4.80;;
21198;SDS011;10757;51.038;3.712;2023-02-28T17:23:53;11.90;;;4.03;;
21198;SDS011;10757;51.038;3.712;2023-02-28T17:26:20;11.25;;;4.88;;
21198;SDS011;10757;51.038;3.712;2023-02-28T17:28:47;12.82;;;4.65;;
21198;SDS011;10757;51.038;3.712;2023-02-28T17:31:14;10.18;;;4.72;;
21198;SDS011;10757;51.038;3.712;2023-02-28T17:33:41;12.60;;;4.80;;
21198;SDS011;10757;51.038;3.712;2023-02-28T17:36:09;7.43;;;4.00;;
21198;SDS011;10757;51.038;3.712;2023-02-28T17:38:40;6.63;;;3.67;;
21198;SDS011;10757;51.038;3.712;2023-02-28T17:41:06;9.07;;;4.70;;
21198;SDS011;10757;51.038;3.712;2023-02-28T17:43:34;10.38;;;5.97;;
21198;SDS011;10757;51.038;3.712;2023-02-28T17:46:00;11.38;;;4.65;;
21198;SDS011;10757;51.038;3.712;2023-02-28T17:48:25;10.00;;;4.78;;
21198;SDS011;10757;51.038;3.712;2023-02-28T17:50:51;18.60;;;9.20;;
21198;SDS011;10757;51.038;3.712;2023-02-28T17:53:17;11.80;;;5.63;;
21198;SDS011;10757;51.038;3.712;2023-02-28T17:55:43;14.50;;;6.28;;
21198;SDS011;10757;51.038;3.712;2023-02-28T17:58:09;13.50;;;5.65;;
21198;SDS011;10757;51.038;3.712;2023-02-28T18:00:39;15.90;;;8.55;;
21198;SDS011;10757;51.038;3.712;2023-02-28T18:03:05;7.82;;;4.70;;
21198;SDS011;10757;51.038;3.712;2023-02-28T18:05:31;11.80;;;4.78;;
21198;SDS011;10757;51.038;3.712;2023-02-28T18:07:57;9.15;;;5.22;;
21198;SDS011;10757;51.038;3.712;2023-02-28T18:10:23;8.82;;;5.25;;